Time;durP1;ratioP1;P1;durP2;ratioP2;P2;SDS_P1;SDS_P2;PMS_P1;PMS_P2;Temp;Humidity;BMP_temperature;BMP_pressure;BME280_temperature;BME280_humidity;BME280_pressure;Samples;Min_cycle;Max_cycle;Signal;HPM_P1;HPM_P2
2023/07/24 00:00:22;;;;;;;4.88;1.83;;;20.40;62.90;;;;;;5079383;28;20126;-71
2023/07/24 00:02:49;;;;;;;1.92;1.38;;;20.40;63.00;;;;;;5081053;28;20032;-70
2023/07/24 00:05:15;;;;;;;3.35;1.60;;;20.50;63.20;;;;;;5083015;28;20168;-69
2023/07/24 00:07:43;;;;;;;2.97;1.60;;;20.40;63.00;;;;;;5081120;28;20036;-68
2023/07/24 00:10:09;;;;;;;6.63;1.98;;;20.40;63.10;;;;;;5080410;28;20446;-70
2023/07/24 00:12:37;;;;;;;2.58;1.42;;;20.40;63.10;;;;;;5078569;28;20082;-70
2023/07/24 00:15:05;;;;;;;2.92;1.40;;;20.40;63.20;;;;;;5078847;28;20036;-71
2023/07/24 00:17:32;;;;;;;3.92;1.30;;;20.40;63.30;;;;;;5080214;28;20040;-69
2023/07/24 00:19:59;;;;;;;3.10;1.30;;;20.30;63.20;;;;;;5077773;28;20616;-70
2023/07/24 00:22:26;;;;;;;2.75;1.33;;;20.40;63.50;;;;;;5081034;28;20051;-68
2023/07/24 00:24:54;;;;;;;2.25;1.40;;;20.30;63.40;;;;;;5080253;28;20036;-67
2023/07/24 00:27:22;;;;;;;2.58;1.73;;;20.30;63.40;;;;;;5087833;28;20031;-68
2023/07/24 00:29:50;;;;;;;4.13;1.20;;;20.30;63.50;;;;;;5079758;28;20109;-68
2023/07/24 00:32:17;;;;;;;2.60;1.52;;;20.30;63.60;;;;;;5078490;28;20499;-68
2023/07/24 00:34:45;;;;;;;2.85;1.52;;;20.30;63.60;;;;;;5077737;28;20163;-69
2023/07/24 00:37:14;;;;;;;2.28;1.17;;;20.20;63.50;;;;;;5082085;28;20036;-69
2023/07/24 00:39:43;;;;;;;3.88;1.38;;;20.20;63.60;;;;;;5062987;28;20039;-69
2023/07/24 00:42:11;;;;;;;2.53;1.38;;;20.20;63.70;;;;;;5062523;28;20471;-69
2023/07/24 00:44:38;;;;;;;3.05;1.20;;;20.30;63.90;;;;;;5078974;28;20040;-70
2023/07/24 00:47:07;;;;;;;7.15;2.05;;;20.20;63.90;;;;;;5063363;28;20055;-72
2023/07/24 00:49:34;;;;;;;2.13;1.58;;;20.10;64.20;;;;;;5074290;28;20025;-70
2023/07/24 00:52:00;;;;;;;2.92;1.40;;;20.20;64.50;;;;;;5081794;28;20044;-73
2023/07/24 00:54:30;;;;;;;2.33;1.58;;;20.10;63.80;;;;;;5079639;28;20036;-71
2023/07/24 00:56:56;;;;;;;2.25;1.35;;;20.10;63.90;;;;;;5081890;28;20544;-71
2023/07/24 00:59:22;;;;;;;3.47;1.30;;;20.10;63.90;;;;;;5072002;28;20036;-69
2023/07/24 01:01:48;;;;;;;3.72;1.80;;;20.10;64.00;;;;;;5066170;28;20511;-71
2023/07/24 01:04:15;;;;;;;2.38;1.00;;;20.10;64.10;;;;;;5081822;28;20024;-69
2023/07/24 01:06:41;;;;;;;4.00;1.75;;;20.10;64.10;;;;;;5083849;28;20032;-72
2023/07/24 01:09:07;;;;;;;2.50;1.65;;;20.10;64.20;;;;;;5078576;28;20037;-72
2023/07/24 01:11:39;;;;;;;3.35;1.50;;;20.10;64.30;;;;;;5082701;28;20035;-70
2023/07/24 01:15:01;;;;;;;4.65;1.85;;;20.10;64.40;;;;;;5079261;28;20226;-72
2023/07/24 01:17:31;;;;;;;5.72;2.20;;;20.00;64.60;;;;;;4978815;28;20042;-71
2023/07/24 01:19:59;;;;;;;7.00;2.05;;;20.00;64.20;;;;;;5063719;28;20511;-72
2023/07/24 01:22:57;;;;;;;3.95;1.38;;;20.00;64.30;;;;;;5083165;28;20725;-71
2023/07/24 01:25:31;;;;;;;3.55;1.58;;;20.00;64.50;;;;;;5081893;28;20036;-70
2023/07/24 01:27:57;;;;;;;5.30;1.65;;;20.00;64.50;;;;;;5090994;28;20151;-72
2023/07/24 01:30:23;;;;;;;2.40;1.30;;;20.00;64.50;;;;;;5079703;28;20189;-75
2023/07/24 01:32:50;;;;;;;3.65;1.65;;;20.00;64.60;;;;;;5080205;28;20032;-68
2023/07/24 01:35:16;;;;;;;4.10;1.40;;;19.90;64.50;;;;;;5081585;28;20063;-69
2023/07/24 01:37:44;;;;;;;7.10;1.98;;;19.90;64.60;;;;;;5082199;28;20114;-69
2023/07/24 01:40:11;;;;;;;3.75;1.90;;;19.90;64.70;;;;;;5082902;28;20050;-70
2023/07/24 01:42:38;;;;;;;4.00;2.13;;;19.90;64.80;;;;;;5082879;28;20117;-69
2023/07/24 01:45:04;;;;;;;4.68;2.20;;;19.90;64.90;;;;;;5082765;28;20576;-69
2023/07/24 01:47:30;;;;;;;2.72;1.98;;;19.90;65.00;;;;;;5083549;28;20244;-69
2023/07/24 01:49:56;;;;;;;3.40;1.35;;;19.90;65.00;;;;;;5072762;28;20123;-68
2023/07/24 01:52:24;;;;;;;3.10;1.60;;;19.90;65.20;;;;;;5071331;28;20040;-69
2023/07/24 01:54:50;;;;;;;3.08;1.42;;;19.90;65.20;;;;;;5078387;28;20086;-68
2023/07/24 01:57:15;;;;;;;3.05;1.80;;;19.80;65.70;;;;;;5078127;28;20433;-72
2023/07/24 01:59:41;;;;;;;2.03;1.40;;;19.80;65.20;;;;;;5069337;28;20035;-71
2023/07/24 02:02:07;;;;;;;3.65;1.65;;;19.80;65.30;;;;;;5082239;28;20471;-73
2023/07/24 02:04:33;;;;;;;2.47;1.75;;;19.80;65.40;;;;;;5083831;28;20046;-68
2023/07/24 02:06:59;;;;;;;2.63;1.50;;;19.70;65.30;;;;;;5082851;28;20032;-68
2023/07/24 02:09:25;;;;;;;4.07;1.90;;;19.70;65.40;;;;;;5084447;28;20043;-72
2023/07/24 02:11:51;;;;;;;3.47;1.80;;;19.70;65.50;;;;;;5085467;28;20070;-69
2023/07/24 02:14:18;;;;;;;3.83;1.60;;;19.70;65.60;;;;;;5078050;28;20036;-76
2023/07/24 02:16:45;;;;;;;4.30;1.42;;;19.60;65.50;;;;;;5084294;28;20571;-71
2023/07/24 02:19:12;;;;;;;3.05;1.80;;;19.60;65.60;;;;;;5081088;28;20089;-71
2023/07/24 02:21:38;;;;;;;1.65;1.50;;;19.60;65.70;;;;;;5085074;28;20126;-70
2023/07/24 02:24:04;;;;;;;2.80;1.55;;;19.60;65.70;;;;;;5085237;28;20093;-74
2023/07/24 02:26:30;;;;;;;2.22;1.67;;;19.60;65.80;;;;;;5073883;28;20082;-70
2023/07/24 02:28:56;;;;;;;2.53;1.40;;;19.50;65.70;;;;;;5090829;28;20480;-71
2023/07/24 02:31:22;;;;;;;4.95;2.25;;;19.50;65.80;;;;;;5085579;28;20126;-74
2023/07/24 02:33:49;;;;;;;3.17;2.00;;;19.50;65.90;;;;;;5075297;28;20095;-76
2023/07/24 02:36:15;;;;;;;2.05;1.50;;;19.50;66.00;;;;;;5078137;28;20786;-70
2023/07/24 02:38:41;;;;;;;3.47;1.83;;;19.50;66.10;;;;;;5077483;28;20020;-69
2023/07/24 02:41:07;;;;;;;4.20;1.77;;;19.50;66.20;;;;;;5084898;28;20035;-71
2023/07/24 02:43:33;;;;;;;4.07;1.85;;;19.40;66.10;;;;;;5079541;28;20038;-74
2023/07/24 02:46:02;;;;;;;3.95;1.83;;;19.40;66.10;;;;;;5080714;28;20020;-72
2023/07/24 02:48:28;;;;;;;1.90;1.70;;;19.40;66.20;;;;;;5084250;28;20035;-70
2023/07/24 02:50:54;;;;;;;3.65;1.58;;;19.40;66.30;;;;;;5086081;28;20024;-72
2023/07/24 02:53:20;;;;;;;1.98;1.40;;;19.30;66.20;;;;;;5095664;28;20034;-71
2023/07/24 02:55:46;;;;;;;2.42;1.50;;;19.30;66.20;;;;;;5094469;28;20032;-70
2023/07/24 02:58:14;;;;;;;1.63;1.30;;;19.30;66.30;;;;;;5080200;28;20081;-69
2023/07/24 03:00:40;;;;;;;1.60;1.17;;;19.30;66.30;;;;;;5089527;28;20383;-73
2023/07/24 03:03:06;;;;;;;1.85;1.25;;;19.30;66.40;;;;;;5096252;28;20058;-69
2023/07/24 03:05:36;;;;;;;2.10;1.10;;;19.30;66.50;;;;;;5084158;28;20032;-72
2023/07/24 03:08:02;;;;;;;3.03;1.65;;;19.30;66.60;;;;;;5097318;28;20028;-74
2023/07/24 03:10:30;;;;;;;3.38;1.88;;;19.20;66.40;;;;;;5086790;28;20070;-72
2023/07/24 03:12:55;;;;;;;5.55;1.45;;;19.30;66.60;;;;;;5084244;28;20020;-75
2023/07/24 03:15:22;;;;;;;2.45;1.30;;;19.20;66.50;;;;;;5092817;28;20121;-77
2023/07/24 03:17:48;;;;;;;2.38;1.55;;;19.20;66.60;;;;;;5091844;28;20032;-72
2023/07/24 03:20:16;;;;;;;1.27;1.15;;;19.20;67.20;;;;;;5092207;28;20039;-73
2023/07/24 03:22:43;;;;;;;3.20;1.58;;;19.20;66.70;;;;;;5094846;28;20552;-70
2023/07/24 03:25:09;;;;;;;3.05;1.73;;;19.20;66.70;;;;;;5087131;28;20169;-69
2023/07/24 03:27:35;;;;;;;2.38;1.52;;;19.20;66.70;;;;;;5089970;28;20100;-74
2023/07/24 03:30:03;;;;;;;1.90;1.40;;;19.20;66.80;;;;;;5081625;28;20078;-74
2023/07/24 03:32:30;;;;;;;3.33;1.73;;;19.20;66.80;;;;;;5082611;28;20048;-76
2023/07/24 03:34:56;;;;;;;2.80;1.38;;;19.20;66.80;;;;;;5083834;28;20518;-70
2023/07/24 03:37:23;;;;;;;1.60;1.30;;;19.20;66.90;;;;;;5081959;28;20566;-75
2023/07/24 03:39:49;;;;;;;2.63;1.48;;;19.20;66.90;;;;;;5083479;28;20036;-77
2023/07/24 03:42:26;;;;;;;2.53;1.77;;;19.10;66.70;;;;;;5086287;28;20435;-76
2023/07/24 03:44:52;;;;;;;1.95;1.58;;;19.10;66.80;;;;;;5082261;28;20039;-72
2023/07/24 03:47:18;;;;;;;2.15;1.38;;;19.10;66.70;;;;;;5082378;28;20832;-72
2023/07/24 03:49:44;;;;;;;2.70;1.50;;;19.10;66.80;;;;;;5080520;28;20133;-74
2023/07/24 03:52:10;;;;;;;3.03;1.70;;;19.10;66.80;;;;;;5092459;28;20111;-73
2023/07/24 03:54:36;;;;;;;2.20;1.20;;;19.00;66.70;;;;;;5087604;28;20082;-69
2023/07/24 03:57:02;;;;;;;2.85;1.60;;;19.00;66.70;;;;;;5097241;28;20039;-69
2023/07/24 03:59:28;;;;;;;1.95;1.30;;;19.00;66.80;;;;;;5078928;28;20039;-69
2023/07/24 04:01:54;;;;;;;2.78;1.67;;;19.00;66.80;;;;;;5098408;28;20631;-68
2023/07/24 04:04:20;;;;;;;2.80;1.58;;;19.00;66.90;;;;;;5091354;28;20040;-70
2023/07/24 04:06:46;;;;;;;2.70;1.75;;;18.90;66.80;;;;;;5093524;28;20035;-70
2023/07/24 04:09:14;;;;;;;4.85;1.55;;;18.90;66.80;;;;;;5087656;28;20020;-72
2023/07/24 04:11:41;;;;;;;3.80;1.38;;;18.90;66.80;;;;;;5086933;28;20067;-72
2023/07/24 04:14:07;;;;;;;1.67;1.40;;;18.90;66.90;;;;;;5086269;28;20028;-72
2023/07/24 04:16:33;;;;;;;2.67;1.60;;;18.90;67.00;;;;;;5094138;28;20044;-70
2023/07/24 04:18:59;;;;;;;4.10;1.45;;;18.80;66.90;;;;;;5095875;28;20115;-72
2023/07/24 04:21:25;;;;;;;2.58;1.58;;;18.80;67.50;;;;;;5090626;28;20115;-71
2023/07/24 04:23:51;;;;;;;2.33;1.50;;;18.80;67.00;;;;;;5082648;28;20409;-70
2023/07/24 04:26:17;;;;;;;3.80;1.40;;;18.80;67.00;;;;;;5095492;28;20039;-69
2023/07/24 04:28:43;;;;;;;1.90;1.52;;;18.80;67.10;;;;;;5088431;28;20166;-71
2023/07/24 04:31:09;;;;;;;2.15;1.30;;;18.80;67.10;;;;;;5087461;28;20032;-69
2023/07/24 04:33:35;;;;;;;2.63;1.77;;;18.80;67.20;;;;;;5084198;28;20458;-71
2023/07/24 04:36:01;;;;;;;2.78;2.28;;;18.80;67.20;;;;;;5083252;28;20089;-74
2023/07/24 04:38:27;;;;;;;2.25;1.45;;;18.80;67.20;;;;;;5087994;28;20040;-70
2023/07/24 04:40:53;;;;;;;1.73;1.60;;;18.80;67.30;;;;;;5092089;28;20051;-72
2023/07/24 04:43:19;;;;;;;2.75;1.65;;;18.80;67.30;;;;;;5084493;28;20040;-73
2023/07/24 04:45:45;;;;;;;1.55;1.45;;;18.80;67.30;;;;;;5083095;28;20042;-74
2023/07/24 04:48:11;;;;;;;2.05;1.60;;;18.80;67.40;;;;;;5080311;28;20390;-71
2023/07/24 04:50:37;;;;;;;2.72;1.88;;;18.80;67.40;;;;;;5092025;28;20036;-68
2023/07/24 04:53:03;;;;;;;3.97;1.50;;;18.80;67.40;;;;;;5079667;28;20423;-71
2023/07/24 04:55:28;;;;;;;2.20;1.50;;;18.80;67.40;;;;;;5094475;28;20050;-70
2023/07/24 04:57:54;;;;;;;2.33;2.05;;;18.80;67.40;;;;;;5076048;28;20115;-71
2023/07/24 05:00:20;;;;;;;2.92;1.67;;;18.80;67.40;;;;;;5081526;28;20131;-71
2023/07/24 05:02:46;;;;;;;3.75;1.70;;;18.80;67.40;;;;;;5077076;28;20226;-72
2023/07/24 05:05:12;;;;;;;3.13;2.17;;;18.80;67.60;;;;;;5078465;28;20513;-70
2023/07/24 05:07:38;;;;;;;1.70;1.60;;;18.80;68.10;;;;;;5078606;28;20051;-72
2023/07/24 05:10:05;;;;;;;1.85;1.48;;;18.80;68.40;;;;;;5090096;28;20040;-70
2023/07/24 05:12:31;;;;;;;2.85;1.90;;;18.80;68.70;;;;;;5080716;28;20419;-71
2023/07/24 05:14:56;;;;;;;2.90;2.08;;;18.80;68.90;;;;;;5080597;28;20050;-69
2023/07/24 05:17:22;;;;;;;2.58;2.10;;;18.90;69.50;;;;;;5067318;28;20233;-72
2023/07/24 05:19:48;;;;;;;2.13;1.92;;;18.90;69.90;;;;;;5058246;28;20123;-73
2023/07/24 05:22:14;;;;;;;3.22;1.60;;;18.90;70.40;;;;;;5078397;28;20035;-74
2023/07/24 05:24:40;;;;;;;3.50;2.00;;;19.00;71.00;;;;;;5072314;28;20059;-70
2023/07/24 05:27:06;;;;;;;3.45;1.90;;;19.00;71.20;;;;;;5082450;28;20122;-69
2023/07/24 05:29:32;;;;;;;3.33;2.08;;;19.10;71.70;;;;;;5076362;28;20209;-70
2023/07/24 05:31:58;;;;;;;3.25;1.45;;;19.20;72.00;;;;;;5080650;28;20032;-70
2023/07/24 05:34:25;;;;;;;3.08;1.70;;;19.20;72.10;;;;;;5079002;28;20060;-70
2023/07/24 05:36:51;;;;;;;2.78;1.98;;;19.30;72.20;;;;;;5083888;28;20186;-70
2023/07/24 05:39:17;;;;;;;3.85;2.10;;;19.30;72.00;;;;;;5089282;28;20257;-70
2023/07/24 05:41:43;;;;;;;1.90;1.58;;;19.30;71.90;;;;;;5077633;28;20481;-69
2023/07/24 05:44:09;;;;;;;1.02;0.70;;;19.40;72.00;;;;;;5086163;28;20045;-70
2023/07/24 05:46:35;;;;;;;1.08;0.90;;;19.40;72.40;;;;;;5078632;28;20058;-72
2023/07/24 05:49:01;;;;;;;1.05;0.73;;;19.50;71.90;;;;;;5070950;28;20016;-77
2023/07/24 05:51:27;;;;;;;1.35;0.98;;;19.50;71.70;;;;;;5080457;28;20039;-71
2023/07/24 05:53:53;;;;;;;1.25;0.65;;;19.50;71.60;;;;;;5080672;28;20028;-69
2023/07/24 05:56:19;;;;;;;1.30;0.82;;;19.60;71.60;;;;;;5078777;28;20070;-71
2023/07/24 05:58:45;;;;;;;0.77;0.50;;;19.60;71.40;;;;;;5073248;28;20201;-71
2023/07/24 06:01:11;;;;;;;2.85;0.77;;;19.70;71.50;;;;;;5084656;28;20395;-69
2023/07/24 06:03:38;;;;;;;1.98;0.73;;;19.70;71.40;;;;;;5084533;28;20047;-71
2023/07/24 06:06:04;;;;;;;0.82;0.60;;;19.70;71.70;;;;;;5077818;28;20460;-72
2023/07/24 06:08:30;;;;;;;0.80;0.40;;;19.70;71.10;;;;;;5082547;28;20495;-72
2023/07/24 06:10:56;;;;;;;1.23;0.40;;;19.70;71.00;;;;;;5080783;28;20035;-70
2023/07/24 06:13:22;;;;;;;0.47;0.47;;;19.70;70.90;;;;;;5083076;28;20368;-69
2023/07/24 06:15:50;;;;;;;0.45;0.45;;;19.70;70.80;;;;;;5084785;28;20035;-70
2023/07/24 06:18:16;;;;;;;0.65;0.30;;;19.70;70.80;;;;;;5080009;28;20403;-70
2023/07/24 06:20:41;;;;;;;0.80;0.40;;;19.70;70.80;;;;;;5084748;28;20085;-69
2023/07/24 06:23:07;;;;;;;0.60;0.40;;;19.70;70.80;;;;;;5089953;28;20145;-73
2023/07/24 06:25:33;;;;;;;1.23;0.55;;;19.70;70.80;;;;;;5085690;28;20519;-71
2023/07/24 06:27:59;;;;;;;0.75;0.40;;;19.70;70.70;;;;;;5088219;28;20334;-71
2023/07/24 06:30:25;;;;;;;1.73;0.50;;;19.70;70.80;;;;;;5091142;28;20560;-70
2023/07/24 06:32:51;;;;;;;0.80;0.40;;;19.70;70.80;;;;;;5089905;28;20032;-70
2023/07/24 06:35:17;;;;;;;7.35;0.95;;;19.70;70.80;;;;;;5080363;28;20060;-72
2023/07/24 06:37:44;;;;;;;1.40;0.30;;;19.70;70.80;;;;;;5081639;28;20031;-75
2023/07/24 06:40:10;;;;;;;0.73;0.32;;;19.70;70.70;;;;;;5079794;28;20471;-74
2023/07/24 06:42:36;;;;;;;0.80;0.35;;;19.70;70.70;;;;;;5082334;28;20036;-72
2023/07/24 06:45:03;;;;;;;1.77;0.50;;;19.70;70.60;;;;;;5081394;28;20036;-73
2023/07/24 06:47:29;;;;;;;2.65;0.30;;;19.70;70.60;;;;;;5077951;28;20605;-71
2023/07/24 06:49:55;;;;;;;0.22;0.22;;;19.70;70.50;;;;;;5074695;28;20035;-71
2023/07/24 06:52:21;;;;;;;0.30;0.25;;;19.80;70.50;;;;;;5085658;28;20032;-74
2023/07/24 06:54:47;;;;;;;1.33;0.30;;;19.80;70.20;;;;;;5082004;28;20501;-73
2023/07/24 06:57:13;;;;;;;2.13;0.40;;;19.80;70.00;;;;;;5073644;28;20039;-72
2023/07/24 06:59:39;;;;;;;0.20;0.20;;;19.80;69.70;;;;;;5075304;28;20470;-71
2023/07/24 07:02:05;;;;;;;0.50;0.50;;;19.80;69.50;;;;;;5077763;28;20028;-73
2023/07/24 07:04:31;;;;;;;0.43;0.20;;;19.80;69.20;;;;;;5074662;28;20154;-73
2023/07/24 07:06:57;;;;;;;1.55;0.75;;;19.70;69.00;;;;;;5079519;28;20071;-69
2023/07/24 07:09:23;;;;;;;0.10;0.10;;;19.80;68.90;;;;;;5072072;28;20417;-71
2023/07/24 07:11:49;;;;;;;0.93;0.28;;;19.80;68.80;;;;;;5078923;28;20044;-72
2023/07/24 07:14:15;;;;;;;0.20;0.20;;;19.80;68.50;;;;;;5078509;28;20036;-74
2023/07/24 07:16:41;;;;;;;1.33;0.55;;;19.80;68.30;;;;;;5075484;28;20178;-74
2023/07/24 07:19:09;;;;;;;0.20;0.20;;;19.90;68.20;;;;;;5078238;28;20284;-70
2023/07/24 07:21:35;;;;;;;0.22;0.22;;;19.90;68.00;;;;;;5083707;28;20088;-71
2023/07/24 07:24:01;;;;;;;0.10;0.10;;;19.90;67.80;;;;;;5088820;28;20506;-71
2023/07/24 07:26:29;;;;;;;0.13;0.13;;;20.00;67.70;;;;;;5091700;28;20063;-74
2023/07/24 07:28:55;;;;;;;0.13;0.13;;;20.00;67.50;;;;;;5087269;28;20035;-75
2023/07/24 07:31:21;;;;;;;0.30;0.30;;;20.00;67.30;;;;;;5092875;28;20412;-71
2023/07/24 07:33:48;;;;;;;1.17;0.20;;;19.90;66.90;;;;;;5084788;28;20124;-71
2023/07/24 07:36:14;;;;;;;0.10;0.10;;;19.90;66.80;;;;;;5077878;28;20028;-71
2023/07/24 07:38:40;;;;;;;0.22;0.10;;;19.90;66.70;;;;;;5081129;28;20047;-69
2023/07/24 07:41:07;;;;;;;0.20;0.20;;;19.90;66.60;;;;;;5089252;28;20144;-71
2023/07/24 07:43:34;;;;;;;0.45;0.20;;;19.80;66.40;;;;;;5090048;28;20096;-72
2023/07/24 07:46:00;;;;;;;1.77;0.65;;;19.80;66.30;;;;;;5086343;28;20036;-72
2023/07/24 07:48:26;;;;;;;0.90;0.47;;;19.80;66.20;;;;;;5081844;28;20046;-70
2023/07/24 07:50:52;;;;;;;0.20;0.20;;;19.90;66.20;;;;;;5078795;28;20028;-70
2023/07/24 07:53:18;;;;;;;0.28;0.28;;;19.90;66.10;;;;;;5085878;28;20043;-71
2023/07/24 07:55:44;;;;;;;0.10;0.10;;;20.00;66.20;;;;;;5082723;28;20409;-70
2023/07/24 07:58:10;;;;;;;2.00;0.10;;;20.00;65.90;;;;;;5071926;28;20234;-70
2023/07/24 08:00:39;;;;;;;0.10;0.10;;;20.10;65.90;;;;;;5090087;28;20116;-72
2023/07/24 08:03:05;;;;;;;0.10;0.10;;;20.10;65.60;;;;;;5087232;28;20374;-75
2023/07/24 08:05:32;;;;;;;0.10;0.10;;;20.10;65.50;;;;;;5085553;28;20035;-72
2023/07/24 08:08:00;;;;;;;0.65;0.50;;;20.20;65.40;;;;;;5083417;28;20427;-70
2023/07/24 08:10:26;;;;;;;0.10;0.10;;;20.20;65.20;;;;;;5078995;28;20706;-72
2023/07/24 08:12:52;;;;;;;0.13;0.10;;;20.20;65.00;;;;;;5082675;28;20120;-73
2023/07/24 08:15:18;;;;;;;0.30;0.20;;;20.20;64.90;;;;;;5087703;28;20035;-73
2023/07/24 08:17:44;;;;;;;0.47;0.20;;;20.20;64.80;;;;;;5080101;28;20383;-71
2023/07/24 08:20:10;;;;;;;0.30;0.20;;;20.20;64.60;;;;;;5080898;28;20059;-72
2023/07/24 08:22:36;;;;;;;0.22;0.10;;;20.20;64.60;;;;;;5084947;28;20032;-70
2023/07/24 08:25:03;;;;;;;0.10;0.10;;;20.10;64.40;;;;;;5077824;28;20928;-70
2023/07/24 08:27:29;;;;;;;0.10;0.10;;;20.10;64.30;;;;;;5084766;28;20467;-70
2023/07/24 08:29:55;;;;;;;0.10;0.10;;;20.10;64.30;;;;;;5078176;28;20709;-72
2023/07/24 08:32:21;;;;;;;0.15;0.15;;;20.10;64.20;;;;;;5079548;28;20291;-74
2023/07/24 08:34:47;;;;;;;0.10;0.10;;;20.10;64.10;;;;;;5071535;28;20286;-73
2023/07/24 08:37:13;;;;;;;0.20;0.10;;;20.10;64.10;;;;;;5075270;28;20177;-70
2023/07/24 08:39:39;;;;;;;0.10;0.10;;;20.10;64.00;;;;;;5078644;28;20054;-75
2023/07/24 08:42:11;;;;;;;0.32;0.10;;;20.10;64.00;;;;;;5081441;28;20555;-71
2023/07/24 08:44:38;;;;;;;0.10;0.10;;;20.10;63.80;;;;;;5080233;28;20028;-70
2023/07/24 08:47:05;;;;;;;1.30;0.20;;;20.20;63.90;;;;;;5074386;28;20283;-72
2023/07/24 08:49:33;;;;;;;0.15;0.15;;;20.20;63.70;;;;;;5072691;28;20125;-73
2023/07/24 08:52:00;;;;;;;0.10;0.10;;;20.30;63.80;;;;;;5073923;28;20036;-70
2023/07/24 08:54:27;;;;;;;0.20;0.20;;;20.30;63.60;;;;;;5074562;28;20033;-71
2023/07/24 08:56:53;;;;;;;0.32;0.20;;;20.40;63.60;;;;;;5069725;28;20078;-71
2023/07/24 08:59:19;;;;;;;0.25;0.20;;;20.50;63.60;;;;;;5068531;28;20028;-75
2023/07/24 09:01:48;;;;;;;0.22;0.15;;;20.60;63.50;;;;;;5080953;28;20103;-70
2023/07/24 09:04:14;;;;;;;0.20;0.13;;;20.70;63.40;;;;;;5076453;28;20116;-72
2023/07/24 09:06:41;;;;;;;0.20;0.20;;;20.80;63.30;;;;;;5074963;28;20032;-73
2023/07/24 09:09:14;;;;;;;0.30;0.30;;;20.90;63.30;;;;;;5077715;28;20567;-73
2023/07/24 09:11:51;;;;;;;0.30;0.20;;;21.00;63.10;;;;;;5076173;28;20118;-71
2023/07/24 09:14:26;;;;;;;1.45;0.57;;;21.10;62.90;;;;;;5084353;28;20040;-71
2023/07/24 09:17:22;;;;;;;0.25;0.25;;;21.10;62.60;;;;;;5075273;28;20325;-73
2023/07/24 09:19:56;;;;;;;0.17;0.17;;;21.30;62.60;;;;;;5066111;28;20408;-70
2023/07/24 09:22:23;;;;;;;0.32;0.32;;;21.40;62.60;;;;;;5081897;28;20094;-72
2023/07/24 09:24:50;;;;;;;0.20;0.20;;;21.50;62.40;;;;;;5086809;28;20076;-72
2023/07/24 09:27:17;;;;;;;0.10;0.10;;;21.60;62.20;;;;;;5094724;27;20663;-72
2023/07/24 09:29:43;;;;;;;0.10;0.10;;;21.70;62.10;;;;;;5086625;28;20035;-71
2023/07/24 09:32:19;;;;;;;0.50;0.20;;;21.70;61.90;;;;;;5085455;28;20024;-69
2023/07/24 09:34:47;;;;;;;0.25;0.22;;;21.80;61.80;;;;;;5072979;28;20128;-74
2023/07/24 09:37:34;;;;;;;0.40;0.20;;;21.80;61.70;;;;;;5088756;28;20032;-73
2023/07/24 09:40:04;;;;;;;0.40;0.40;;;21.90;61.70;;;;;;5085690;28;20040;-75
2023/07/24 09:42:35;;;;;;;0.30;0.22;;;21.90;61.60;;;;;;5082979;28;20059;-70
2023/07/24 09:45:03;;;;;;;0.20;0.20;;;22.00;61.50;;;;;;5089853;28;20032;-73
2023/07/24 09:47:30;;;;;;;0.30;0.30;;;22.10;61.50;;;;;;5081358;28;20527;-70
2023/07/24 09:49:56;;;;;;;0.55;0.30;;;22.20;61.30;;;;;;5080681;28;20036;-69
2023/07/24 09:52:24;;;;;;;0.75;0.20;;;22.30;61.10;;;;;;5079274;28;20063;-72
2023/07/24 09:54:56;;;;;;;0.50;0.20;;;22.40;60.90;;;;;;5074658;28;20028;-71
2023/07/24 09:57:25;;;;;;;1.75;0.40;;;22.50;60.80;;;;;;5077915;28;20427;-70
2023/07/24 09:59:53;;;;;;;0.20;0.20;;;22.60;60.80;;;;;;5081290;28;20124;-71
2023/07/24 10:02:19;;;;;;;1.92;0.30;;;22.60;60.60;;;;;;5072351;28;20024;-70
2023/07/24 10:04:46;;;;;;;0.40;0.30;;;22.60;60.40;;;;;;5075639;28;20032;-72
2023/07/24 10:07:14;;;;;;;0.38;0.38;;;22.70;60.40;;;;;;5084796;28;20035;-71
2023/07/24 10:09:44;;;;;;;0.50;0.30;;;22.80;60.40;;;;;;5080139;28;20066;-70
2023/07/24 10:12:10;;;;;;;1.02;0.35;;;22.90;60.20;;;;;;5079832;28;20043;-70
2023/07/24 10:14:37;;;;;;;0.22;0.22;;;23.00;60.00;;;;;;5085118;28;20045;-70
2023/07/24 10:17:03;;;;;;;0.22;0.22;;;23.20;60.00;;;;;;5083332;28;20035;-70
2023/07/24 10:19:39;;;;;;;0.30;0.30;;;23.30;59.60;;;;;;5082100;28;20036;-74
2023/07/24 10:22:05;;;;;;;0.30;0.30;;;23.50;59.40;;;;;;5086795;28;20135;-73
2023/07/24 10:24:33;;;;;;;0.93;0.30;;;23.60;59.30;;;;;;5092442;28;20059;-72
2023/07/24 10:26:59;;;;;;;0.65;0.20;;;23.70;59.00;;;;;;5086168;28;20032;-72
2023/07/24 10:29:28;;;;;;;0.75;0.20;;;23.90;59.10;;;;;;5083278;28;20546;-70
2023/07/24 10:31:55;;;;;;;0.60;0.40;;;24.10;59.10;;;;;;5087179;28;20235;-74
2023/07/24 10:34:21;;;;;;;0.43;0.20;;;24.20;58.70;;;;;;5079201;28;20696;-71
2023/07/24 10:36:47;;;;;;;0.30;0.30;;;24.50;58.70;;;;;;5079992;28;20041;-70
2023/07/24 10:39:15;;;;;;;0.20;0.20;;;24.60;58.30;;;;;;5083439;28;20038;-72
2023/07/24 10:41:41;;;;;;;0.30;0.20;;;24.90;58.40;;;;;;5081292;28;20048;-70
2023/07/24 10:44:07;;;;;;;0.30;0.30;;;25.00;58.10;;;;;;5079776;28;20036;-70
2023/07/24 10:46:38;;;;;;;0.40;0.40;;;25.20;57.70;;;;;;5080449;28;20491;-70
2023/07/24 10:49:05;;;;;;;0.52;0.30;;;25.50;57.20;;;;;;5081384;28;20035;-75
2023/07/24 10:51:33;;;;;;;0.20;0.20;;;25.80;56.90;;;;;;5085214;28;20059;-70
2023/07/24 10:54:03;;;;;;;0.32;0.30;;;26.00;56.40;;;;;;5088911;28;20069;-70
2023/07/24 10:56:29;;;;;;;0.52;0.30;;;26.20;56.00;;;;;;5077776;28;20076;-74
2023/07/24 10:58:55;;;;;;;0.30;0.30;;;26.40;55.60;;;;;;5070525;28;20075;-72
2023/07/24 11:01:23;;;;;;;0.73;0.30;;;26.60;55.30;;;;;;5091082;28;20071;-74
2023/07/24 11:03:49;;;;;;;0.50;0.35;;;26.70;54.90;;;;;;5080299;28;20412;-76
2023/07/24 11:06:18;;;;;;;1.27;0.30;;;26.80;54.40;;;;;;5078895;28;20490;-71
2023/07/24 11:08:56;;;;;;;0.73;0.30;;;26.90;54.10;;;;;;5069476;28;20029;-73
2023/07/24 11:11:29;;;;;;;0.30;0.30;;;27.00;53.70;;;;;;5096517;28;20383;-72
2023/07/24 11:13:55;;;;;;;1.00;0.30;;;26.90;53.70;;;;;;5088296;28;20039;-71
2023/07/24 11:16:21;;;;;;;0.57;0.50;;;26.90;53.60;;;;;;5081031;28;20032;-71
2023/07/24 11:18:48;;;;;;;0.30;0.30;;;27.00;53.40;;;;;;5077190;28;20080;-71
2023/07/24 11:21:18;;;;;;;0.30;0.30;;;27.20;53.20;;;;;;5079935;28;20947;-74
2023/07/24 11:23:48;;;;;;;0.57;0.50;;;27.30;52.80;;;;;;5080523;28;20028;-70
2023/07/24 11:26:15;;;;;;;0.30;0.30;;;27.40;52.40;;;;;;5084892;28;20084;-74
2023/07/24 11:28:42;;;;;;;0.40;0.40;;;27.50;52.30;;;;;;5078616;28;20060;-72
2023/07/24 11:31:08;;;;;;;0.90;0.47;;;27.70;52.10;;;;;;5085120;28;20533;-70
2023/07/24 11:33:35;;;;;;;0.55;0.22;;;27.80;51.80;;;;;;5080903;28;20043;-70
2023/07/24 11:36:00;;;;;;;0.40;0.40;;;27.90;51.60;;;;;;5079398;28;20035;-70
2023/07/24 11:38:27;;;;;;;0.60;0.30;;;28.00;51.40;;;;;;5084752;28;20047;-71
2023/07/24 11:40:55;;;;;;;0.40;0.40;;;28.20;51.20;;;;;;5078666;28;20539;-74
2023/07/24 11:43:23;;;;;;;0.90;0.45;;;28.20;50.70;;;;;;5084542;28;20294;-71
2023/07/24 11:45:52;;;;;;;0.68;0.60;;;28.20;50.70;;;;;;5085410;28;20024;-73
2023/07/24 11:48:23;;;;;;;0.52;0.52;;;28.30;50.70;;;;;;5074198;28;20068;-73
2023/07/24 11:50:55;;;;;;;2.03;0.40;;;28.20;51.20;;;;;;5086255;28;20037;-69
2023/07/24 11:53:29;;;;;;;0.65;0.60;;;28.20;50.50;;;;;;5084345;28;20130;-71
2023/07/24 11:55:57;;;;;;;0.40;0.40;;;28.10;50.40;;;;;;5082017;28;20029;-72
2023/07/24 11:58:26;;;;;;;0.63;0.40;;;28.00;50.60;;;;;;5069848;28;20664;-70
2023/07/24 12:00:53;;;;;;;0.50;0.40;;;28.10;50.50;;;;;;5076756;28;20043;-73
2023/07/24 12:03:25;;;;;;;1.23;0.60;;;28.10;50.40;;;;;;5080600;28;20020;-73
2023/07/24 12:05:51;;;;;;;0.55;0.40;;;28.00;50.20;;;;;;5073654;28;20115;-69
2023/07/24 12:08:23;;;;;;;1.02;0.57;;;27.90;50.40;;;;;;5081008;28;20578;-69
2023/07/24 12:10:49;;;;;;;0.45;0.45;;;27.70;50.60;;;;;;5081410;28;20076;-69
2023/07/24 12:13:15;;;;;;;1.25;0.60;;;27.50;50.70;;;;;;5073574;28;20043;-69
2023/07/24 12:15:41;;;;;;;0.57;0.40;;;27.40;50.80;;;;;;5077033;28;20038;-71
2023/07/24 12:18:07;;;;;;;0.45;0.45;;;27.30;50.80;;;;;;5082080;28;20039;-73
2023/07/24 12:20:34;;;;;;;0.45;0.45;;;27.20;50.80;;;;;;5076304;28;20499;-71
2023/07/24 12:23:00;;;;;;;1.00;0.70;;;27.20;50.80;;;;;;5073383;28;20032;-72
2023/07/24 12:25:26;;;;;;;1.60;0.73;;;27.00;50.60;;;;;;5080308;28;20501;-70
2023/07/24 12:27:52;;;;;;;2.03;1.20;;;26.90;50.70;;;;;;5078992;28;20032;-77
2023/07/24 12:30:18;;;;;;;0.90;0.60;;;26.80;50.80;;;;;;5073291;28;20056;-70
2023/07/24 12:32:44;;;;;;;0.95;0.70;;;26.60;50.90;;;;;;5084906;28;20163;-69
2023/07/24 12:35:11;;;;;;;0.73;0.40;;;26.40;51.10;;;;;;5079236;28;20044;-70
2023/07/24 12:37:39;;;;;;;0.80;0.63;;;26.20;51.20;;;;;;5081050;28;20472;-70
2023/07/24 12:40:06;;;;;;;1.95;0.98;;;26.00;51.40;;;;;;5076727;28;20040;-71
2023/07/24 12:42:31;;;;;;;1.67;0.60;;;25.80;51.60;;;;;;5087487;28;20032;-74
2023/07/24 12:44:58;;;;;;;1.48;1.00;;;25.60;51.90;;;;;;5088683;28;20359;-71
2023/07/24 12:47:24;;;;;;;1.15;0.60;;;25.50;52.20;;;;;;5090113;28;20519;-70